<?xml version="1.0" encoding="UTF-8" standalone="no" ?>
<gpx xmlns="http://www.topografix.com/GPX/1/1" xmlns:xsi="http://www.w3.org/2001/XMLSchema-instance" xsi:schemaLocation="http://www.topografix.com/GPX/1/1 http://www.topografix.com/GPX/1/1/gpx.xsd" version="1.1" creator="VisuGPX - https://www.visugpx.com">
  <metadata>
    <name>3 Batailles Boucle N°7</name>
  </metadata>
  <trk>
    <name><![CDATA[15134676-3 batailles Boucle n°6]]></name>
    <extensions>
      <line xmlns="http://www.topografix.com/GPX/gpx_style/0/2">
        <color>00FF00</color>
        <width>4</width>
      </line>
    </extensions>
    <trkseg>
      <trkpt lat="46.72555" lon="0.52455">
        <ele>88</ele>
        <time>2022-07-13T18:01:10Z</time>
      </trkpt>
      <trkpt lat="46.7257" lon="0.5244">
        <ele>86.2</ele>
      </trkpt>
      <trkpt lat="46.72616" lon="0.52437">
        <ele>86.7</ele>
      </trkpt>
      <trkpt lat="46.72873" lon="0.52464">
        <ele>86.2</ele>
      </trkpt>
      <trkpt lat="46.72859" lon="0.52195">
        <ele>108</ele>
        <time>2022-07-13T18:07:51Z</time>
      </trkpt>
      <trkpt lat="46.72893" lon="0.51983">
        <ele>120</ele>
        <time>2022-07-13T18:09:58Z</time>
      </trkpt>
      <trkpt lat="46.73086" lon="0.51975">
        <ele>108.1</ele>
        <time>2022-07-13T18:12:25Z</time>
      </trkpt>
      <trkpt lat="46.73125" lon="0.52036">
        <ele>105.2</ele>
        <time>2022-07-13T18:13:37Z</time>
      </trkpt>
      <trkpt lat="46.7321" lon="0.52057">
        <ele>102.4</ele>
      </trkpt>
      <trkpt lat="46.73215" lon="0.51862">
        <ele>104.5</ele>
        <time>2022-07-13T18:16:20Z</time>
      </trkpt>
      <trkpt lat="46.73289" lon="0.51856">
        <ele>102.2</ele>
        <time>2022-07-13T18:17:22Z</time>
      </trkpt>
      <trkpt lat="46.73283" lon="0.51684">
        <ele>110.9</ele>
      </trkpt>
      <trkpt lat="46.73301" lon="0.51641">
        <ele>111.8</ele>
      </trkpt>
      <trkpt lat="46.73308" lon="0.51518">
        <ele>107.3</ele>
        <time>2022-07-13T18:20:29Z</time>
      </trkpt>
      <trkpt lat="46.73368" lon="0.51413">
        <ele>101</ele>
      </trkpt>
      <trkpt lat="46.73364" lon="0.51355">
        <ele>100.1</ele>
        <time>2022-07-13T18:22:12Z</time>
      </trkpt>
      <trkpt lat="46.73406" lon="0.51323">
        <ele>99.8</ele>
      </trkpt>
      <trkpt lat="46.73421" lon="0.51292">
        <ele>100.3</ele>
      </trkpt>
      <trkpt lat="46.73385" lon="0.5123">
        <ele>103.5</ele>
        <time>2022-07-13T18:23:04Z</time>
      </trkpt>
      <trkpt lat="46.73441" lon="0.51187">
        <ele>103.8</ele>
      </trkpt>
      <trkpt lat="46.73473" lon="0.51138">
        <ele>105</ele>
        <time>2022-07-13T18:24:29Z</time>
      </trkpt>
      <trkpt lat="46.73533" lon="0.51019">
        <ele>108.3</ele>
        <time>2022-07-13T18:26:40Z</time>
      </trkpt>
      <trkpt lat="46.73633" lon="0.51007">
        <ele>108</ele>
      </trkpt>
      <trkpt lat="46.73663" lon="0.50956">
        <ele>106.5</ele>
      </trkpt>
      <trkpt lat="46.73714" lon="0.50961">
        <ele>104.6</ele>
      </trkpt>
      <trkpt lat="46.73727" lon="0.50948">
        <ele>103.2</ele>
      </trkpt>
      <trkpt lat="46.73746" lon="0.50929">
        <ele>102.4</ele>
        <time>2022-07-13T18:29:30Z</time>
      </trkpt>
      <trkpt lat="46.7385" lon="0.50975">
        <ele>100.9</ele>
      </trkpt>
      <trkpt lat="46.73868" lon="0.51019">
        <ele>101.7</ele>
      </trkpt>
      <trkpt lat="46.73898" lon="0.51059">
        <ele>103</ele>
      </trkpt>
      <trkpt lat="46.73927" lon="0.51074">
        <ele>102.9</ele>
      </trkpt>
      <trkpt lat="46.74066" lon="0.51191">
        <ele>101</ele>
        <time>2022-07-13T18:33:52Z</time>
      </trkpt>
      <trkpt lat="46.74155" lon="0.51298">
        <ele>102.7</ele>
      </trkpt>
      <trkpt lat="46.74246" lon="0.51409">
        <ele>102.1</ele>
        <time>2022-07-13T18:37:07Z</time>
      </trkpt>
      <trkpt lat="46.74318" lon="0.51598">
        <ele>96.7</ele>
      </trkpt>
      <trkpt lat="46.74396" lon="0.51769">
        <ele>95.2</ele>
        <time>2022-07-13T18:40:57Z</time>
      </trkpt>
      <trkpt lat="46.74501" lon="0.51876">
        <ele>96.5</ele>
      </trkpt>
      <trkpt lat="46.74572" lon="0.51898">
        <ele>96.9</ele>
      </trkpt>
      <trkpt lat="46.74726" lon="0.52067">
        <ele>100.3</ele>
        <time>2022-07-13T18:45:59Z</time>
      </trkpt>
      <trkpt lat="46.74799" lon="0.5204">
        <ele>99.3</ele>
      </trkpt>
      <trkpt lat="46.74887" lon="0.51871">
        <ele>86.7</ele>
        <time>2022-07-13T18:48:52Z</time>
      </trkpt>
      <trkpt lat="46.74935" lon="0.51869">
        <ele>85.4</ele>
      </trkpt>
      <trkpt lat="46.74968" lon="0.51918">
        <ele>84.3</ele>
      </trkpt>
      <trkpt lat="46.75053" lon="0.52024">
        <ele>80</ele>
        <time>2022-07-13T18:51:31Z</time>
      </trkpt>
      <trkpt lat="46.75115" lon="0.51901">
        <ele>77.9</ele>
      </trkpt>
      <trkpt lat="46.75179" lon="0.51771">
        <ele>76.6</ele>
      </trkpt>
      <trkpt lat="46.75313" lon="0.5155">
        <ele>74.6</ele>
      </trkpt>
      <trkpt lat="46.75361" lon="0.51503">
        <ele>78</ele>
        <time>2022-07-13T18:57:48Z</time>
      </trkpt>
      <trkpt lat="46.75411" lon="0.51348">
        <ele>73</ele>
        <time>2022-07-13T18:59:26Z</time>
      </trkpt>
      <trkpt lat="46.75406" lon="0.51207">
        <ele>75.6</ele>
      </trkpt>
      <trkpt lat="46.75398" lon="0.51147">
        <ele>76</ele>
      </trkpt>
      <trkpt lat="46.75392" lon="0.50988">
        <ele>76</ele>
      </trkpt>
      <trkpt lat="46.75365" lon="0.50916">
        <ele>76</ele>
        <time>2022-07-13T19:02:32Z</time>
      </trkpt>
      <trkpt lat="46.75426" lon="0.50754">
        <ele>76</ele>
        <time>2022-07-13T19:04:44Z</time>
      </trkpt>
      <trkpt lat="46.76021" lon="0.51243">
        <ele>71.8</ele>
      </trkpt>
      <trkpt lat="46.76146" lon="0.51297">
        <ele>62</ele>
        <time>2022-07-13T19:15:22Z</time>
      </trkpt>
      <trkpt lat="46.76191" lon="0.51299">
        <ele>59.1</ele>
      </trkpt>
      <trkpt lat="46.76221" lon="0.51211">
        <ele>56.6</ele>
      </trkpt>
      <trkpt lat="46.76249" lon="0.51031">
        <ele>54</ele>
        <time>2022-07-13T19:18:10Z</time>
      </trkpt>
      <trkpt lat="46.76271" lon="0.50922">
        <ele>54.2</ele>
      </trkpt>
      <trkpt lat="46.76287" lon="0.50798">
        <ele>55.3</ele>
      </trkpt>
      <trkpt lat="46.76286" lon="0.50732">
        <ele>55.1</ele>
      </trkpt>
      <trkpt lat="46.76295" lon="0.5067">
        <ele>54.6</ele>
      </trkpt>
      <trkpt lat="46.76315" lon="0.50481">
        <ele>55</ele>
        <time>2022-07-13T19:22:43Z</time>
      </trkpt>
      <trkpt lat="46.76297" lon="0.5045">
        <ele>55</ele>
      </trkpt>
      <trkpt lat="46.76277" lon="0.50377">
        <ele>53.5</ele>
        <time>2022-07-13T19:24:07Z</time>
      </trkpt>
      <trkpt lat="46.76141" lon="0.50468">
        <ele>53.9</ele>
      </trkpt>
      <trkpt lat="46.76033" lon="0.50508">
        <ele>53.3</ele>
        <time>2022-07-13T19:27:33Z</time>
      </trkpt>
      <trkpt lat="46.75999" lon="0.50574">
        <ele>55.6</ele>
      </trkpt>
      <trkpt lat="46.75947" lon="0.50556">
        <ele>54.9</ele>
      </trkpt>
      <trkpt lat="46.75876" lon="0.50571">
        <ele>54.6</ele>
        <time>2022-07-13T19:29:47Z</time>
      </trkpt>
      <trkpt lat="46.75789" lon="0.50524">
        <ele>54.9</ele>
      </trkpt>
      <trkpt lat="46.75699" lon="0.50508">
        <ele>57.4</ele>
        <time>2022-07-13T19:32:16Z</time>
      </trkpt>
      <trkpt lat="46.75618" lon="0.50596">
        <ele>69.6</ele>
      </trkpt>
      <trkpt lat="46.75559" lon="0.50609">
        <ele>71.1</ele>
      </trkpt>
      <trkpt lat="46.75425" lon="0.50756">
        <ele>76</ele>
      </trkpt>
      <trkpt lat="46.75195" lon="0.50519">
        <ele>72.3</ele>
      </trkpt>
      <trkpt lat="46.74909" lon="0.50323">
        <ele>66.5</ele>
      </trkpt>
      <trkpt lat="46.74864" lon="0.50304">
        <ele>67</ele>
        <time>2022-07-13T19:43:56Z</time>
      </trkpt>
      <trkpt lat="46.74601" lon="0.50062">
        <ele>66.5</ele>
        <time>2022-07-13T19:48:59Z</time>
      </trkpt>
      <trkpt lat="46.74529" lon="0.49995">
        <ele>66</ele>
      </trkpt>
      <trkpt lat="46.74458" lon="0.49932">
        <ele>66</ele>
        <time>2022-07-13T19:51:14Z</time>
      </trkpt>
      <trkpt lat="46.74427" lon="0.49499">
        <ele>62.4</ele>
        <time>2022-07-13T19:54:49Z</time>
      </trkpt>
      <trkpt lat="46.74345" lon="0.49393">
        <ele>63.1</ele>
      </trkpt>
      <trkpt lat="46.74279" lon="0.49343">
        <ele>65.9</ele>
      </trkpt>
      <trkpt lat="46.74207" lon="0.49265">
        <ele>65.8</ele>
        <time>2022-07-13T19:58:50Z</time>
      </trkpt>
      <trkpt lat="46.74138" lon="0.4911">
        <ele>65</ele>
      </trkpt>
      <trkpt lat="46.74074" lon="0.48984">
        <ele>64.3</ele>
      </trkpt>
      <trkpt lat="46.739" lon="0.48826">
        <ele>64.9</ele>
      </trkpt>
      <trkpt lat="46.73855" lon="0.4877">
        <ele>61.8</ele>
        <time>2022-07-13T20:04:51Z</time>
      </trkpt>
      <trkpt lat="46.73883" lon="0.48677">
        <ele>57.9</ele>
        <time>2022-07-13T20:06:18Z</time>
      </trkpt>
      <trkpt lat="46.73783" lon="0.48581">
        <ele>56</ele>
      </trkpt>
      <trkpt lat="46.7357" lon="0.48446">
        <ele>58.8</ele>
        <time>2022-07-13T20:10:52Z</time>
      </trkpt>
      <trkpt lat="46.73511" lon="0.48426">
        <ele>58.8</ele>
      </trkpt>
      <trkpt lat="46.73487" lon="0.48462">
        <ele>60.5</ele>
      </trkpt>
      <trkpt lat="46.73457" lon="0.48554">
        <ele>64.9</ele>
      </trkpt>
      <trkpt lat="46.73423" lon="0.48622">
        <ele>67.3</ele>
        <time>2022-07-13T20:13:33Z</time>
      </trkpt>
      <trkpt lat="46.73396" lon="0.48659">
        <ele>69.1</ele>
      </trkpt>
      <trkpt lat="46.73354" lon="0.48669">
        <ele>71.5</ele>
      </trkpt>
      <trkpt lat="46.73412" lon="0.48677">
        <ele>72.6</ele>
      </trkpt>
      <trkpt lat="46.7343" lon="0.48714">
        <ele>78.7</ele>
      </trkpt>
      <trkpt lat="46.73419" lon="0.48783">
        <ele>82.6</ele>
      </trkpt>
      <trkpt lat="46.73435" lon="0.48817">
        <ele>85.5</ele>
      </trkpt>
      <trkpt lat="46.73482" lon="0.48841">
        <ele>85.7</ele>
      </trkpt>
      <trkpt lat="46.73562" lon="0.48934">
        <ele>86.5</ele>
        <time>2022-07-13T20:17:29Z</time>
      </trkpt>
      <trkpt lat="46.73445" lon="0.49244">
        <ele>82.2</ele>
      </trkpt>
      <trkpt lat="46.73321" lon="0.49542">
        <ele>86</ele>
      </trkpt>
      <trkpt lat="46.73271" lon="0.49629">
        <ele>90.1</ele>
      </trkpt>
      <trkpt lat="46.73235" lon="0.49757">
        <ele>95.7</ele>
      </trkpt>
      <trkpt lat="46.73193" lon="0.49876">
        <ele>103</ele>
        <time>2022-07-13T20:27:22Z</time>
      </trkpt>
      <trkpt lat="46.73171" lon="0.49945">
        <ele>106.3</ele>
      </trkpt>
      <trkpt lat="46.73135" lon="0.49913">
        <ele>104.1</ele>
        <time>2022-07-13T20:28:28Z</time>
      </trkpt>
      <trkpt lat="46.72773" lon="0.5024">
        <ele>100</ele>
        <time>2022-07-13T20:33:23Z</time>
      </trkpt>
      <trkpt lat="46.72883" lon="0.5042">
        <ele>113.7</ele>
      </trkpt>
      <trkpt lat="46.72995" lon="0.50623">
        <ele>119.4</ele>
        <time>2022-07-13T20:37:28Z</time>
      </trkpt>
      <trkpt lat="46.73121" lon="0.50583">
        <ele>118.6</ele>
        <time>2022-07-13T20:39:19Z</time>
      </trkpt>
      <trkpt lat="46.7309" lon="0.50726">
        <ele>119.1</ele>
      </trkpt>
      <trkpt lat="46.73043" lon="0.50978">
        <ele>120.5</ele>
        <time>2022-07-13T20:42:37Z</time>
      </trkpt>
      <trkpt lat="46.72897" lon="0.51008">
        <ele>123.7</ele>
        <time>2022-07-13T20:44:42Z</time>
      </trkpt>
      <trkpt lat="46.72904" lon="0.51099">
        <ele>122.4</ele>
      </trkpt>
      <trkpt lat="46.7293" lon="0.51226">
        <ele>119.5</ele>
        <time>2022-07-13T20:46:40Z</time>
      </trkpt>
      <trkpt lat="46.72682" lon="0.51369">
        <ele>127.2</ele>
      </trkpt>
      <trkpt lat="46.72596" lon="0.51443">
        <ele>127.1</ele>
        <time>2022-07-13T20:51:01Z</time>
      </trkpt>
      <trkpt lat="46.72293" lon="0.51876">
        <ele>134.5</ele>
        <time>2022-07-13T20:57:13Z</time>
      </trkpt>
      <trkpt lat="46.72424" lon="0.51897">
        <ele>131</ele>
        <time>2022-07-13T20:58:57Z</time>
      </trkpt>
      <trkpt lat="46.72454" lon="0.52043">
        <ele>128.5</ele>
      </trkpt>
      <trkpt lat="46.72502" lon="0.52112">
        <ele>124</ele>
        <time>2022-07-13T21:01:17Z</time>
      </trkpt>
      <trkpt lat="46.72476" lon="0.5223">
        <ele>106.1</ele>
      </trkpt>
      <trkpt lat="46.72484" lon="0.52352">
        <ele>98</ele>
        <time>2022-07-13T21:03:30Z</time>
      </trkpt>
      <trkpt lat="46.72519" lon="0.52392">
        <ele>91.4</ele>
      </trkpt>
      <trkpt lat="46.72538" lon="0.52463">
        <ele>86.6</ele>
        <time>2022-07-13T21:04:50Z</time>
      </trkpt>
    </trkseg>
  </trk>
</gpx>